Auburn Township, Ohio
Current Conditions -  °F | °C
As of 2:54 PM on Monday 22 Dec 2014 (Local Time) from KAKR Reporting Station
Broken Clouds Broken Clouds  
Wind Chill:   Ceiling: 5000
Heat Index:   Visibility: 9mi
Dew Point:   Wind: 5mph
Humidity: 63%   Direction: 120°ESE
Pressure: 29.96"   Gusts: NA
Location:  41.2966°N, 81.2269°W
Report Text: KAKR 221954Z AUTO 12004KT 9SM BKN050 07/00 A2996 RMK AO2 SLP153 T00670000
Loading
Personal Weather Stations






























Interactive Weather Map New forecast layout! Learn more

10-Day Weather Forecast

Advertisements
Track Severe Weather on mobile